sensor_id;sensor_type;location;lat;lon;timestamp;P1;durP1;ratioP1;P2;durP2;ratioP2
12707;SDS011;6418;50.824;4.718;2022-09-30T00:01:23;20.03;;;11.80;;
12707;SDS011;6418;50.824;4.718;2022-09-30T00:03:51;22.60;;;12.13;;
12707;SDS011;6418;50.824;4.718;2022-09-30T00:06:19;23.50;;;11.97;;
12707;SDS011;6418;50.824;4.718;2022-09-30T00:08:47;27.27;;;13.57;;
12707;SDS011;6418;50.824;4.718;2022-09-30T00:11:15;24.30;;;13.60;;
12707;SDS011;6418;50.824;4.718;2022-09-30T00:13:43;21.97;;;13.40;;
12707;SDS011;6418;50.824;4.718;2022-09-30T00:16:12;23.53;;;13.53;;
12707;SDS011;6418;50.824;4.718;2022-09-30T00:18:40;28.10;;;14.90;;
12707;SDS011;6418;50.824;4.718;2022-09-30T00:21:08;30.40;;;15.00;;
12707;SDS011;6418;50.824;4.718;2022-09-30T00:23:38;25.47;;;15.00;;
12707;SDS011;6418;50.824;4.718;2022-09-30T00:26:06;26.37;;;16.57;;
12707;SDS011;6418;50.824;4.718;2022-09-30T00:28:34;28.20;;;14.20;;
12707;SDS011;6418;50.824;4.718;2022-09-30T00:31:02;26.00;;;15.43;;
12707;SDS011;6418;50.824;4.718;2022-09-30T00:33:31;24.07;;;15.17;;
12707;SDS011;6418;50.824;4.718;2022-09-30T00:35:59;26.90;;;16.27;;
12707;SDS011;6418;50.824;4.718;2022-09-30T00:38:26;28.07;;;15.77;;
12707;SDS011;6418;50.824;4.718;2022-09-30T00:40:55;30.93;;;17.03;;
12707;SDS011;6418;50.824;4.718;2022-09-30T00:43:37;28.63;;;16.07;;
12707;SDS011;6418;50.824;4.718;2022-09-30T00:46:07;25.70;;;15.13;;
12707;SDS011;6418;50.824;4.718;2022-09-30T00:48:41;24.90;;;15.70;;
12707;SDS011;6418;50.824;4.718;2022-09-30T00:51:09;25.33;;;15.67;;
12707;SDS011;6418;50.824;4.718;2022-09-30T00:53:38;31.23;;;16.13;;
12707;SDS011;6418;50.824;4.718;2022-09-30T00:56:15;31.60;;;16.80;;
12707;SDS011;6418;50.824;4.718;2022-09-30T00:58:46;36.53;;;18.23;;
12707;SDS011;6418;50.824;4.718;2022-09-30T01:01:17;36.33;;;18.87;;
12707;SDS011;6418;50.824;4.718;2022-09-30T01:03:45;32.33;;;17.90;;
12707;SDS011;6418;50.824;4.718;2022-09-30T01:06:16;32.57;;;17.33;;
12707;SDS011;6418;50.824;4.718;2022-09-30T01:08:44;31.90;;;16.97;;
12707;SDS011;6418;50.824;4.718;2022-09-30T01:11:13;32.30;;;17.23;;
12707;SDS011;6418;50.824;4.718;2022-09-30T01:13:41;29.37;;;16.73;;
12707;SDS011;6418;50.824;4.718;2022-09-30T01:16:16;34.43;;;17.80;;
12707;SDS011;6418;50.824;4.718;2022-09-30T01:19:04;35.63;;;18.37;;
12707;SDS011;6418;50.824;4.718;2022-09-30T01:22:02;27.23;;;16.33;;
12707;SDS011;6418;50.824;4.718;2022-09-30T01:28:05;31.97;;;16.97;;
12707;SDS011;6418;50.824;4.718;2022-09-30T01:31:03;31.40;;;17.47;;
12707;SDS011;6418;50.824;4.718;2022-09-30T01:33:41;32.90;;;19.60;;
12707;SDS011;6418;50.824;4.718;2022-09-30T01:36:23;39.63;;;20.17;;
12707;SDS011;6418;50.824;4.718;2022-09-30T01:39:01;33.10;;;19.40;;
12707;SDS011;6418;50.824;4.718;2022-09-30T01:41:41;42.80;;;22.87;;
12707;SDS011;6418;50.824;4.718;2022-09-30T01:44:12;37.40;;;20.47;;
12707;SDS011;6418;50.824;4.718;2022-09-30T01:46:43;35.87;;;19.30;;
12707;SDS011;6418;50.824;4.718;2022-09-30T01:49:18;32.17;;;18.73;;
12707;SDS011;6418;50.824;4.718;2022-09-30T01:51:54;35.20;;;19.20;;
12707;SDS011;6418;50.824;4.718;2022-09-30T01:54:28;36.80;;;19.77;;
12707;SDS011;6418;50.824;4.718;2022-09-30T01:57:01;37.27;;;23.13;;
12707;SDS011;6418;50.824;4.718;2022-09-30T01:59:33;43.03;;;23.43;;
12707;SDS011;6418;50.824;4.718;2022-09-30T02:02:07;44.97;;;24.23;;
12707;SDS011;6418;50.824;4.718;2022-09-30T02:04:40;43.37;;;22.80;;
12707;SDS011;6418;50.824;4.718;2022-09-30T02:07:11;45.27;;;22.97;;
12707;SDS011;6418;50.824;4.718;2022-09-30T02:09:42;45.63;;;23.90;;
12707;SDS011;6418;50.824;4.718;2022-09-30T02:12:14;37.00;;;21.53;;
12707;SDS011;6418;50.824;4.718;2022-09-30T02:14:46;43.47;;;23.77;;
12707;SDS011;6418;50.824;4.718;2022-09-30T02:17:19;42.10;;;23.70;;
12707;SDS011;6418;50.824;4.718;2022-09-30T02:19:49;42.93;;;23.23;;
12707;SDS011;6418;50.824;4.718;2022-09-30T02:22:23;40.47;;;22.50;;
12707;SDS011;6418;50.824;4.718;2022-09-30T02:24:55;42.03;;;23.23;;
12707;SDS011;6418;50.824;4.718;2022-09-30T02:27:26;41.37;;;24.00;;
12707;SDS011;6418;50.824;4.718;2022-09-30T02:29:58;37.27;;;21.97;;
12707;SDS011;6418;50.824;4.718;2022-09-30T02:32:30;42.07;;;23.27;;
12707;SDS011;6418;50.824;4.718;2022-09-30T02:35:02;43.10;;;24.53;;
12707;SDS011;6418;50.824;4.718;2022-09-30T02:37:31;40.40;;;22.70;;
12707;SDS011;6418;50.824;4.718;2022-09-30T02:40:02;44.87;;;23.27;;
12707;SDS011;6418;50.824;4.718;2022-09-30T02:42:34;43.93;;;23.30;;
12707;SDS011;6418;50.824;4.718;2022-09-30T02:45:02;37.93;;;21.90;;
12707;SDS011;6418;50.824;4.718;2022-09-30T02:47:36;39.53;;;23.13;;
12707;SDS011;6418;50.824;4.718;2022-09-30T02:50:11;50.70;;;26.67;;
12707;SDS011;6418;50.824;4.718;2022-09-30T02:52:45;50.27;;;26.70;;
12707;SDS011;6418;50.824;4.718;2022-09-30T02:55:25;45.80;;;25.47;;
12707;SDS011;6418;50.824;4.718;2022-09-30T02:57:58;48.77;;;25.60;;
12707;SDS011;6418;50.824;4.718;2022-09-30T03:00:29;46.57;;;24.53;;
12707;SDS011;6418;50.824;4.718;2022-09-30T03:02:59;47.27;;;25.70;;
12707;SDS011;6418;50.824;4.718;2022-09-30T03:05:30;44.60;;;24.43;;
12707;SDS011;6418;50.824;4.718;2022-09-30T03:07:58;46.53;;;24.57;;
12707;SDS011;6418;50.824;4.718;2022-09-30T03:10:25;43.10;;;24.27;;
12707;SDS011;6418;50.824;4.718;2022-09-30T03:12:59;42.93;;;24.07;;
12707;SDS011;6418;50.824;4.718;2022-09-30T03:15:45;41.43;;;22.70;;
12707;SDS011;6418;50.824;4.718;2022-09-30T03:18:28;44.23;;;24.77;;
12707;SDS011;6418;50.824;4.718;2022-09-30T03:21:09;48.53;;;26.83;;
12707;SDS011;6418;50.824;4.718;2022-09-30T03:24:12;50.03;;;26.30;;
12707;SDS011;6418;50.824;4.718;2022-09-30T03:26:59;56.23;;;27.03;;
12707;SDS011;6418;50.824;4.718;2022-09-30T03:29:36;57.00;;;28.47;;
12707;SDS011;6418;50.824;4.718;2022-09-30T03:32:14;50.57;;;26.77;;
12707;SDS011;6418;50.824;4.718;2022-09-30T03:34:57;63.37;;;30.90;;
12707;SDS011;6418;50.824;4.718;2022-09-30T03:37:29;59.07;;;29.17;;
12707;SDS011;6418;50.824;4.718;2022-09-30T03:40:00;56.17;;;30.10;;
12707;SDS011;6418;50.824;4.718;2022-09-30T03:42:33;57.50;;;27.07;;
12707;SDS011;6418;50.824;4.718;2022-09-30T03:45:04;59.43;;;30.60;;
12707;SDS011;6418;50.824;4.718;2022-09-30T03:47:37;57.60;;;28.67;;
12707;SDS011;6418;50.824;4.718;2022-09-30T03:50:09;56.97;;;30.00;;
12707;SDS011;6418;50.824;4.718;2022-09-30T03:52:39;71.07;;;29.50;;
12707;SDS011;6418;50.824;4.718;2022-09-30T03:55:07;61.43;;;28.93;;
12707;SDS011;6418;50.824;4.718;2022-09-30T03:57:35;60.20;;;28.80;;
12707;SDS011;6418;50.824;4.718;2022-09-30T04:00:03;61.73;;;27.93;;
12707;SDS011;6418;50.824;4.718;2022-09-30T04:02:31;61.70;;;28.73;;
12707;SDS011;6418;50.824;4.718;2022-09-30T04:05:02;73.53;;;31.70;;
12707;SDS011;6418;50.824;4.718;2022-09-30T04:07:30;53.60;;;29.13;;
12707;SDS011;6418;50.824;4.718;2022-09-30T04:09:58;54.73;;;28.37;;
12707;SDS011;6418;50.824;4.718;2022-09-30T04:12:25;64.00;;;32.37;;
12707;SDS011;6418;50.824;4.718;2022-09-30T04:14:52;72.43;;;32.37;;
12707;SDS011;6418;50.824;4.718;2022-09-30T04:17:19;71.00;;;31.30;;
12707;SDS011;6418;50.824;4.718;2022-09-30T04:19:46;72.70;;;32.60;;
12707;SDS011;6418;50.824;4.718;2022-09-30T04:22:13;71.90;;;32.17;;
12707;SDS011;6418;50.824;4.718;2022-09-30T04:24:41;78.23;;;34.53;;
12707;SDS011;6418;50.824;4.718;2022-09-30T04:27:08;65.10;;;32.77;;
12707;SDS011;6418;50.824;4.718;2022-09-30T04:29:35;63.40;;;32.47;;
12707;SDS011;6418;50.824;4.718;2022-09-30T04:32:02;64.50;;;31.57;;
12707;SDS011;6418;50.824;4.718;2022-09-30T04:34:29;74.80;;;34.07;;
12707;SDS011;6418;50.824;4.718;2022-09-30T04:36:56;76.83;;;33.63;;
12707;SDS011;6418;50.824;4.718;2022-09-30T04:39:23;86.83;;;36.60;;
12707;SDS011;6418;50.824;4.718;2022-09-30T04:41:51;82.17;;;36.57;;
12707;SDS011;6418;50.824;4.718;2022-09-30T04:44:18;96.70;;;38.60;;
12707;SDS011;6418;50.824;4.718;2022-09-30T04:46:45;81.37;;;36.27;;
12707;SDS011;6418;50.824;4.718;2022-09-30T04:49:12;98.73;;;39.97;;
12707;SDS011;6418;50.824;4.718;2022-09-30T04:51:39;96.80;;;39.47;;
12707;SDS011;6418;50.824;4.718;2022-09-30T04:54:10;89.27;;;37.33;;
12707;SDS011;6418;50.824;4.718;2022-09-30T04:56:37;108.27;;;40.90;;
12707;SDS011;6418;50.824;4.718;2022-09-30T04:59:05;107.43;;;41.13;;
12707;SDS011;6418;50.824;4.718;2022-09-30T05:01:32;86.40;;;38.83;;
12707;SDS011;6418;50.824;4.718;2022-09-30T05:04:01;79.20;;;39.13;;
12707;SDS011;6418;50.824;4.718;2022-09-30T05:06:32;104.03;;;42.30;;
12707;SDS011;6418;50.824;4.718;2022-09-30T05:08:59;106.93;;;41.07;;
12707;SDS011;6418;50.824;4.718;2022-09-30T05:11:26;97.83;;;40.40;;
12707;SDS011;6418;50.824;4.718;2022-09-30T05:13:53;89.20;;;37.87;;
12707;SDS011;6418;50.824;4.718;2022-09-30T05:16:21;109.80;;;41.20;;
12707;SDS011;6418;50.824;4.718;2022-09-30T05:18:48;84.47;;;37.57;;
12707;SDS011;6418;50.824;4.718;2022-09-30T05:21:16;94.60;;;39.67;;
12707;SDS011;6418;50.824;4.718;2022-09-30T05:23:44;106.77;;;40.33;;
12707;SDS011;6418;50.824;4.718;2022-09-30T05:26:12;118.03;;;41.60;;
12707;SDS011;6418;50.824;4.718;2022-09-30T05:28:39;104.27;;;39.00;;
12707;SDS011;6418;50.824;4.718;2022-09-30T05:31:07;100.10;;;40.73;;
12707;SDS011;6418;50.824;4.718;2022-09-30T05:33:37;96.13;;;38.40;;
12707;SDS011;6418;50.824;4.718;2022-09-30T05:36:06;98.27;;;39.03;;
12707;SDS011;6418;50.824;4.718;2022-09-30T05:38:33;91.60;;;38.77;;
12707;SDS011;6418;50.824;4.718;2022-09-30T05:41:04;93.23;;;38.70;;
12707;SDS011;6418;50.824;4.718;2022-09-30T05:43:32;103.73;;;40.20;;
12707;SDS011;6418;50.824;4.718;2022-09-30T05:45:59;97.30;;;41.10;;
12707;SDS011;6418;50.824;4.718;2022-09-30T05:48:26;101.10;;;39.67;;
12707;SDS011;6418;50.824;4.718;2022-09-30T05:50:56;100.03;;;40.63;;
12707;SDS011;6418;50.824;4.718;2022-09-30T05:53:25;96.93;;;41.77;;
12707;SDS011;6418;50.824;4.718;2022-09-30T05:55:52;99.47;;;42.87;;
12707;SDS011;6418;50.824;4.718;2022-09-30T05:58:19;91.97;;;39.33;;
12707;SDS011;6418;50.824;4.718;2022-09-30T06:00:47;117.17;;;45.63;;
12707;SDS011;6418;50.824;4.718;2022-09-30T06:03:15;89.27;;;40.40;;
12707;SDS011;6418;50.824;4.718;2022-09-30T06:05:42;101.13;;;42.87;;
12707;SDS011;6418;50.824;4.718;2022-09-30T06:08:12;107.57;;;44.90;;
12707;SDS011;6418;50.824;4.718;2022-09-30T06:10:39;97.60;;;43.73;;
12707;SDS011;6418;50.824;4.718;2022-09-30T06:13:07;95.67;;;41.17;;
12707;SDS011;6418;50.824;4.718;2022-09-30T06:15:35;108.87;;;45.67;;
12707;SDS011;6418;50.824;4.718;2022-09-30T06:18:03;130.30;;;46.47;;
12707;SDS011;6418;50.824;4.718;2022-09-30T06:20:30;109.80;;;45.23;;
12707;SDS011;6418;50.824;4.718;2022-09-30T06:22:57;119.27;;;47.83;;
12707;SDS011;6418;50.824;4.718;2022-09-30T06:25:27;118.23;;;47.93;;
12707;SDS011;6418;50.824;4.718;2022-09-30T06:27:55;121.57;;;48.80;;
12707;SDS011;6418;50.824;4.718;2022-09-30T06:30:22;122.00;;;52.13;;
12707;SDS011;6418;50.824;4.718;2022-09-30T06:32:49;136.57;;;51.90;;
12707;SDS011;6418;50.824;4.718;2022-09-30T06:35:18;154.37;;;53.40;;
12707;SDS011;6418;50.824;4.718;2022-09-30T06:37:49;136.20;;;53.23;;
12707;SDS011;6418;50.824;4.718;2022-09-30T06:40:16;159.07;;;56.60;;
12707;SDS011;6418;50.824;4.718;2022-09-30T06:42:46;142.30;;;56.07;;
12707;SDS011;6418;50.824;4.718;2022-09-30T06:45:13;150.90;;;55.83;;
12707;SDS011;6418;50.824;4.718;2022-09-30T06:47:43;132.50;;;55.87;;
12707;SDS011;6418;50.824;4.718;2022-09-30T06:50:10;152.00;;;56.67;;
12707;SDS011;6418;50.824;4.718;2022-09-30T06:52:37;157.43;;;58.20;;
12707;SDS011;6418;50.824;4.718;2022-09-30T06:55:07;155.03;;;60.40;;
12707;SDS011;6418;50.824;4.718;2022-09-30T06:57:34;179.53;;;62.40;;
12707;SDS011;6418;50.824;4.718;2022-09-30T07:00:03;165.93;;;60.63;;
12707;SDS011;6418;50.824;4.718;2022-09-30T07:02:31;168.50;;;61.10;;
12707;SDS011;6418;50.824;4.718;2022-09-30T07:04:59;139.67;;;60.73;;
12707;SDS011;6418;50.824;4.718;2022-09-30T07:07:27;141.10;;;60.33;;
12707;SDS011;6418;50.824;4.718;2022-09-30T07:09:58;144.60;;;62.60;;
12707;SDS011;6418;50.824;4.718;2022-09-30T07:12:26;189.83;;;65.33;;
12707;SDS011;6418;50.824;4.718;2022-09-30T07:14:52;142.10;;;61.77;;
12707;SDS011;6418;50.824;4.718;2022-09-30T07:17:21;154.30;;;63.47;;
12707;SDS011;6418;50.824;4.718;2022-09-30T07:19:48;162.50;;;65.93;;
12707;SDS011;6418;50.824;4.718;2022-09-30T07:22:16;151.37;;;64.50;;
12707;SDS011;6418;50.824;4.718;2022-09-30T07:24:56;164.70;;;66.87;;
12707;SDS011;6418;50.824;4.718;2022-09-30T07:27:23;151.40;;;66.83;;
12707;SDS011;6418;50.824;4.718;2022-09-30T07:29:51;170.30;;;66.03;;
12707;SDS011;6418;50.824;4.718;2022-09-30T07:32:18;151.60;;;62.97;;
12707;SDS011;6418;50.824;4.718;2022-09-30T07:34:48;152.73;;;63.93;;
12707;SDS011;6418;50.824;4.718;2022-09-30T07:37:16;159.70;;;63.50;;
12707;SDS011;6418;50.824;4.718;2022-09-30T07:39:45;155.23;;;65.43;;
12707;SDS011;6418;50.824;4.718;2022-09-30T07:42:14;150.73;;;65.53;;
12707;SDS011;6418;50.824;4.718;2022-09-30T07:44:44;169.73;;;67.80;;
12707;SDS011;6418;50.824;4.718;2022-09-30T07:47:11;167.93;;;68.50;;
12707;SDS011;6418;50.824;4.718;2022-09-30T07:49:39;171.47;;;70.77;;
12707;SDS011;6418;50.824;4.718;2022-09-30T07:52:09;156.93;;;68.63;;
12707;SDS011;6418;50.824;4.718;2022-09-30T07:54:38;156.53;;;70.50;;
12707;SDS011;6418;50.824;4.718;2022-09-30T07:57:06;168.47;;;70.33;;
12707;SDS011;6418;50.824;4.718;2022-09-30T07:59:35;166.63;;;68.70;;
12707;SDS011;6418;50.824;4.718;2022-09-30T08:02:03;147.93;;;68.43;;
12707;SDS011;6418;50.824;4.718;2022-09-30T08:04:31;151.17;;;66.37;;
12707;SDS011;6418;50.824;4.718;2022-09-30T08:07:00;151.53;;;65.63;;
12707;SDS011;6418;50.824;4.718;2022-09-30T08:09:29;135.50;;;63.53;;
12707;SDS011;6418;50.824;4.718;2022-09-30T08:11:58;144.83;;;65.87;;
12707;SDS011;6418;50.824;4.718;2022-09-30T08:14:28;151.03;;;66.23;;
12707;SDS011;6418;50.824;4.718;2022-09-30T08:16:55;129.40;;;63.30;;
12707;SDS011;6418;50.824;4.718;2022-09-30T08:19:24;122.10;;;61.03;;
12707;SDS011;6418;50.824;4.718;2022-09-30T08:21:52;122.67;;;61.30;;
12707;SDS011;6418;50.824;4.718;2022-09-30T08:24:19;126.70;;;63.67;;
12707;SDS011;6418;50.824;4.718;2022-09-30T08:26:48;113.73;;;58.43;;
12707;SDS011;6418;50.824;4.718;2022-09-30T08:29:15;115.63;;;60.63;;
12707;SDS011;6418;50.824;4.718;2022-09-30T08:31:42;105.47;;;57.23;;
12707;SDS011;6418;50.824;4.718;2022-09-30T08:34:09;117.73;;;62.33;;
12707;SDS011;6418;50.824;4.718;2022-09-30T08:36:36;125.97;;;65.67;;
12707;SDS011;6418;50.824;4.718;2022-09-30T08:39:03;119.17;;;64.13;;
12707;SDS011;6418;50.824;4.718;2022-09-30T08:41:46;119.27;;;63.60;;
12707;SDS011;6418;50.824;4.718;2022-09-30T08:44:33;98.23;;;57.33;;
12707;SDS011;6418;50.824;4.718;2022-09-30T08:47:23;96.57;;;57.77;;
12707;SDS011;6418;50.824;4.718;2022-09-30T08:50:01;113.43;;;62.47;;
12707;SDS011;6418;50.824;4.718;2022-09-30T08:52:36;88.47;;;52.60;;
12707;SDS011;6418;50.824;4.718;2022-09-30T08:55:06;80.77;;;50.00;;
12707;SDS011;6418;50.824;4.718;2022-09-30T08:57:42;86.70;;;51.73;;
12707;SDS011;6418;50.824;4.718;2022-09-30T09:00:11;82.80;;;50.27;;
12707;SDS011;6418;50.824;4.718;2022-09-30T09:02:42;80.23;;;49.40;;
12707;SDS011;6418;50.824;4.718;2022-09-30T09:05:15;77.37;;;48.80;;
12707;SDS011;6418;50.824;4.718;2022-09-30T09:07:50;74.27;;;48.23;;
12707;SDS011;6418;50.824;4.718;2022-09-30T09:10:26;77.60;;;49.10;;
12707;SDS011;6418;50.824;4.718;2022-09-30T09:13:06;75.63;;;47.73;;
12707;SDS011;6418;50.824;4.718;2022-09-30T09:15:48;73.83;;;46.90;;
12707;SDS011;6418;50.824;4.718;2022-09-30T09:18:27;72.03;;;45.23;;
12707;SDS011;6418;50.824;4.718;2022-09-30T09:21:16;83.10;;;49.67;;
12707;SDS011;6418;50.824;4.718;2022-09-30T09:23:48;69.17;;;43.50;;
12707;SDS011;6418;50.824;4.718;2022-09-30T09:26:16;64.30;;;43.47;;
12707;SDS011;6418;50.824;4.718;2022-09-30T09:28:47;62.93;;;41.73;;
12707;SDS011;6418;50.824;4.718;2022-09-30T09:31:24;56.83;;;37.87;;
12707;SDS011;6418;50.824;4.718;2022-09-30T09:33:52;57.80;;;37.90;;
12707;SDS011;6418;50.824;4.718;2022-09-30T09:36:29;52.53;;;35.00;;
12707;SDS011;6418;50.824;4.718;2022-09-30T09:39:06;50.60;;;34.03;;
12707;SDS011;6418;50.824;4.718;2022-09-30T09:41:48;51.93;;;33.67;;
12707;SDS011;6418;50.824;4.718;2022-09-30T09:44:25;47.17;;;31.87;;
12707;SDS011;6418;50.824;4.718;2022-09-30T09:46:59;42.67;;;29.27;;
12707;SDS011;6418;50.824;4.718;2022-09-30T09:49:33;44.63;;;29.10;;
12707;SDS011;6418;50.824;4.718;2022-09-30T09:52:34;47.90;;;30.83;;
12707;SDS011;6418;50.824;4.718;2022-09-30T09:55:13;38.37;;;27.03;;
12707;SDS011;6418;50.824;4.718;2022-09-30T09:57:43;43.77;;;28.80;;
12707;SDS011;6418;50.824;4.718;2022-09-30T10:00:12;42.90;;;28.17;;
12707;SDS011;6418;50.824;4.718;2022-09-30T10:03:10;41.27;;;26.77;;
12707;SDS011;6418;50.824;4.718;2022-09-30T10:05:43;40.27;;;25.27;;
12707;SDS011;6418;50.824;4.718;2022-09-30T10:08:23;32.40;;;21.13;;
12707;SDS011;6418;50.824;4.718;2022-09-30T10:10:51;33.23;;;21.03;;
12707;SDS011;6418;50.824;4.718;2022-09-30T10:13:20;29.50;;;20.30;;
12707;SDS011;6418;50.824;4.718;2022-09-30T10:15:50;31.30;;;20.00;;
12707;SDS011;6418;50.824;4.718;2022-09-30T10:18:21;28.50;;;18.63;;
12707;SDS011;6418;50.824;4.718;2022-09-30T10:20:52;32.70;;;19.67;;
12707;SDS011;6418;50.824;4.718;2022-09-30T10:23:22;31.03;;;19.77;;
12707;SDS011;6418;50.824;4.718;2022-09-30T10:25:54;24.53;;;15.23;;
12707;SDS011;6418;50.824;4.718;2022-09-30T10:28:24;22.97;;;13.30;;
12707;SDS011;6418;50.824;4.718;2022-09-30T10:30:58;24.53;;;13.83;;
12707;SDS011;6418;50.824;4.718;2022-09-30T10:33:40;23.00;;;13.50;;
12707;SDS011;6418;50.824;4.718;2022-09-30T10:36:13;19.33;;;10.43;;
12707;SDS011;6418;50.824;4.718;2022-09-30T10:38:51;15.83;;;8.83;;
12707;SDS011;6418;50.824;4.718;2022-09-30T10:41:26;14.87;;;7.90;;
12707;SDS011;6418;50.824;4.718;2022-09-30T10:43:55;15.20;;;8.17;;
12707;SDS011;6418;50.824;4.718;2022-09-30T10:46:26;12.57;;;7.17;;
12707;SDS011;6418;50.824;4.718;2022-09-30T10:48:56;14.43;;;5.90;;
12707;SDS011;6418;50.824;4.718;2022-09-30T10:51:28;10.00;;;5.43;;
12707;SDS011;6418;50.824;4.718;2022-09-30T10:53:58;11.53;;;5.40;;
12707;SDS011;6418;50.824;4.718;2022-09-30T10:56:38;10.57;;;5.20;;
12707;SDS011;6418;50.824;4.718;2022-09-30T10:59:11;9.50;;;5.10;;
12707;SDS011;6418;50.824;4.718;2022-09-30T11:01:47;10.17;;;4.80;;
12707;SDS011;6418;50.824;4.718;2022-09-30T11:04:20;11.07;;;5.40;;
12707;SDS011;6418;50.824;4.718;2022-09-30T11:06:50;10.77;;;5.20;;
12707;SDS011;6418;50.824;4.718;2022-09-30T11:09:25;9.00;;;4.50;;
12707;SDS011;6418;50.824;4.718;2022-09-30T11:12:01;8.53;;;4.10;;
12707;SDS011;6418;50.824;4.718;2022-09-30T11:14:37;9.73;;;4.40;;
12707;SDS011;6418;50.824;4.718;2022-09-30T11:17:14;7.07;;;4.27;;
12707;SDS011;6418;50.824;4.718;2022-09-30T11:19:51;8.53;;;3.70;;
12707;SDS011;6418;50.824;4.718;2022-09-30T11:22:28;6.50;;;3.90;;
12707;SDS011;6418;50.824;4.718;2022-09-30T11:25:00;7.43;;;3.90;;
12707;SDS011;6418;50.824;4.718;2022-09-30T11:27:33;8.10;;;3.53;;
12707;SDS011;6418;50.824;4.718;2022-09-30T11:30:11;5.73;;;3.50;;
12707;SDS011;6418;50.824;4.718;2022-09-30T11:32:51;6.27;;;3.70;;
12707;SDS011;6418;50.824;4.718;2022-09-30T11:35:35;7.30;;;3.43;;
12707;SDS011;6418;50.824;4.718;2022-09-30T11:38:12;4.77;;;2.87;;
12707;SDS011;6418;50.824;4.718;2022-09-30T11:40:57;7.30;;;3.60;;
12707;SDS011;6418;50.824;4.718;2022-09-30T11:43:31;6.47;;;3.90;;
12707;SDS011;6418;50.824;4.718;2022-09-30T11:46:10;5.90;;;3.40;;
12707;SDS011;6418;50.824;4.718;2022-09-30T11:48:53;5.50;;;3.27;;
12707;SDS011;6418;50.824;4.718;2022-09-30T11:51:31;5.87;;;3.50;;
12707;SDS011;6418;50.824;4.718;2022-09-30T11:54:09;8.30;;;3.80;;
12707;SDS011;6418;50.824;4.718;2022-09-30T11:56:48;8.43;;;4.10;;
12707;SDS011;6418;50.824;4.718;2022-09-30T11:59:25;9.57;;;4.30;;
12707;SDS011;6418;50.824;4.718;2022-09-30T12:01:57;7.70;;;4.10;;
12707;SDS011;6418;50.824;4.718;2022-09-30T12:04:30;9.57;;;3.80;;
12707;SDS011;6418;50.824;4.718;2022-09-30T12:07:03;9.03;;;4.03;;
12707;SDS011;6418;50.824;4.718;2022-09-30T12:09:34;7.87;;;4.00;;
12707;SDS011;6418;50.824;4.718;2022-09-30T12:12:06;9.00;;;3.90;;
12707;SDS011;6418;50.824;4.718;2022-09-30T12:14:38;9.63;;;3.70;;
12707;SDS011;6418;50.824;4.718;2022-09-30T12:17:11;9.67;;;3.90;;
12707;SDS011;6418;50.824;4.718;2022-09-30T12:19:48;8.73;;;4.30;;
12707;SDS011;6418;50.824;4.718;2022-09-30T12:22:18;7.93;;;4.27;;
12707;SDS011;6418;50.824;4.718;2022-09-30T12:24:52;5.73;;;3.80;;
12707;SDS011;6418;50.824;4.718;2022-09-30T12:27:20;8.73;;;4.10;;
12707;SDS011;6418;50.824;4.718;2022-09-30T12:29:53;7.50;;;3.90;;
12707;SDS011;6418;50.824;4.718;2022-09-30T12:32:54;9.83;;;4.23;;
12707;SDS011;6418;50.824;4.718;2022-09-30T12:38:54;8.37;;;4.07;;
12707;SDS011;6418;50.824;4.718;2022-09-30T12:41:46;9.10;;;4.00;;
12707;SDS011;6418;50.824;4.718;2022-09-30T12:44:31;10.97;;;4.57;;
12707;SDS011;6418;50.824;4.718;2022-09-30T12:47:22;9.10;;;4.67;;
12707;SDS011;6418;50.824;4.718;2022-09-30T12:49:57;9.37;;;4.50;;
12707;SDS011;6418;50.824;4.718;2022-09-30T12:52:31;10.90;;;4.40;;
12707;SDS011;6418;50.824;4.718;2022-09-30T12:55:01;11.37;;;5.13;;
12707;SDS011;6418;50.824;4.718;2022-09-30T12:57:35;11.00;;;5.40;;
12707;SDS011;6418;50.824;4.718;2022-09-30T13:00:12;9.80;;;4.90;;
12707;SDS011;6418;50.824;4.718;2022-09-30T13:02:41;12.43;;;5.33;;
12707;SDS011;6418;50.824;4.718;2022-09-30T13:05:41;11.07;;;5.10;;
12707;SDS011;6418;50.824;4.718;2022-09-30T13:08:35;12.47;;;5.80;;
12707;SDS011;6418;50.824;4.718;2022-09-30T13:11:20;11.93;;;5.70;;
12707;SDS011;6418;50.824;4.718;2022-09-30T13:14:09;10.70;;;5.10;;
12707;SDS011;6418;50.824;4.718;2022-09-30T13:16:56;13.47;;;4.93;;
12707;SDS011;6418;50.824;4.718;2022-09-30T13:19:30;10.83;;;5.30;;
12707;SDS011;6418;50.824;4.718;2022-09-30T13:25:17;13.03;;;5.77;;
12707;SDS011;6418;50.824;4.718;2022-09-30T13:27:44;10.80;;;5.30;;
12707;SDS011;6418;50.824;4.718;2022-09-30T13:30:36;13.30;;;4.87;;
12707;SDS011;6418;50.824;4.718;2022-09-30T13:36:15;12.23;;;5.40;;
12707;SDS011;6418;50.824;4.718;2022-09-30T13:38:44;11.97;;;5.43;;
12707;SDS011;6418;50.824;4.718;2022-09-30T13:41:17;9.57;;;5.40;;
12707;SDS011;6418;50.824;4.718;2022-09-30T13:43:52;12.67;;;5.40;;
12707;SDS011;6418;50.824;4.718;2022-09-30T13:46:28;9.30;;;5.00;;
12707;SDS011;6418;50.824;4.718;2022-09-30T13:49:00;8.17;;;4.20;;
12707;SDS011;6418;50.824;4.718;2022-09-30T13:51:31;7.20;;;4.13;;
12707;SDS011;6418;50.824;4.718;2022-09-30T13:53:59;7.67;;;4.17;;
12707;SDS011;6418;50.824;4.718;2022-09-30T13:56:34;8.10;;;4.07;;
12707;SDS011;6418;50.824;4.718;2022-09-30T13:59:17;8.23;;;4.50;;
12707;SDS011;6418;50.824;4.718;2022-09-30T14:04:48;5.47;;;3.83;;
12707;SDS011;6418;50.824;4.718;2022-09-30T14:07:27;9.43;;;4.17;;
12707;SDS011;6418;50.824;4.718;2022-09-30T14:10:18;5.03;;;3.53;;
12707;SDS011;6418;50.824;4.718;2022-09-30T14:13:04;6.73;;;3.50;;
12707;SDS011;6418;50.824;4.718;2022-09-30T14:18:55;9.47;;;3.90;;
12707;SDS011;6418;50.824;4.718;2022-09-30T14:21:42;9.53;;;3.80;;
12707;SDS011;6418;50.824;4.718;2022-09-30T14:24:13;6.43;;;3.60;;
12707;SDS011;6418;50.824;4.718;2022-09-30T14:26:55;9.03;;;3.97;;
12707;SDS011;6418;50.824;4.718;2022-09-30T14:29:40;8.63;;;3.60;;
12707;SDS011;6418;50.824;4.718;2022-09-30T14:32:16;5.73;;;3.40;;
12707;SDS011;6418;50.824;4.718;2022-09-30T14:34:45;6.70;;;3.30;;
12707;SDS011;6418;50.824;4.718;2022-09-30T14:37:14;5.70;;;3.37;;
12707;SDS011;6418;50.824;4.718;2022-09-30T14:39:45;4.53;;;3.50;;
12707;SDS011;6418;50.824;4.718;2022-09-30T14:42:15;4.90;;;3.30;;
12707;SDS011;6418;50.824;4.718;2022-09-30T14:44:50;9.43;;;3.73;;
12707;SDS011;6418;50.824;4.718;2022-09-30T14:47:19;6.47;;;3.83;;
12707;SDS011;6418;50.824;4.718;2022-09-30T14:49:47;7.00;;;3.90;;
12707;SDS011;6418;50.824;4.718;2022-09-30T14:52:34;9.83;;;3.83;;
12707;SDS011;6418;50.824;4.718;2022-09-30T14:55:15;7.87;;;3.90;;
12707;SDS011;6418;50.824;4.718;2022-09-30T14:57:47;6.77;;;4.07;;
12707;SDS011;6418;50.824;4.718;2022-09-30T15:00:20;5.07;;;3.53;;
12707;SDS011;6418;50.824;4.718;2022-09-30T15:02:53;6.60;;;3.90;;
12707;SDS011;6418;50.824;4.718;2022-09-30T15:05:20;5.73;;;4.00;;
12707;SDS011;6418;50.824;4.718;2022-09-30T15:07:47;8.40;;;3.93;;
12707;SDS011;6418;50.824;4.718;2022-09-30T15:10:15;5.77;;;3.80;;
12707;SDS011;6418;50.824;4.718;2022-09-30T15:12:44;6.37;;;4.03;;
12707;SDS011;6418;50.824;4.718;2022-09-30T15:15:24;6.73;;;3.80;;
12707;SDS011;6418;50.824;4.718;2022-09-30T15:17:58;7.20;;;4.40;;
12707;SDS011;6418;50.824;4.718;2022-09-30T15:20:28;7.13;;;4.40;;
12707;SDS011;6418;50.824;4.718;2022-09-30T15:22:57;7.47;;;3.97;;
12707;SDS011;6418;50.824;4.718;2022-09-30T15:25:27;7.87;;;4.27;;
12707;SDS011;6418;50.824;4.718;2022-09-30T15:27:55;7.00;;;3.90;;
12707;SDS011;6418;50.824;4.718;2022-09-30T15:30:24;6.67;;;4.20;;